Atlantic, Iowa
Current Conditions -  °F | °C
As of 6:35 PM on Wednesday 22 Oct 2014 (Local Time) from KAIO Reporting Station
Clear Clear  
Wind Chill: 64°   Ceiling: Unl
Heat Index: 64°   Visibility: 10mi
Dew Point: 50°   Wind: 9mph
Humidity: 59%   Direction: 150°SSE
Pressure: 30.04"   Gusts: 15mph
Location:  41.4°N, 95.01°W
Report Text: KAIO 222335Z AUTO 15008G13KT 10SM CLR 18/10 A3004 RMK AO2
Loading
Personal Weather Stations






























Interactive Weather Map New forecast layout! Learn more

10-Day Weather Forecast

Advertisements
Track Severe Weather on mobile